createdAt,value
2019-01-11T00:02:45.871Z,8.59
2019-01-11T00:05:16.231Z,8.62
2019-01-11T00:08:05.160Z,8.72
2019-01-11T00:10:54.725Z,8.80
2019-01-11T00:13:25.050Z,8.95
2019-01-11T00:15:55.300Z,9.08
2019-01-11T00:18:44.556Z,9.06
2019-01-11T00:21:14.745Z,9.01
2019-01-11T00:24:03.685Z,9.03
2019-01-11T00:26:52.990Z,9.06
2019-01-11T00:29:23.212Z,9.11
2019-01-11T00:31:53.531Z,8.83
2019-01-11T00:34:23.919Z,8.73
2019-01-11T00:36:54.180Z,8.60
2019-01-11T00:39:43.397Z,8.51
2019-01-11T00:42:13.676Z,8.57
2019-01-11T00:44:43.907Z,8.63
2019-01-11T00:47:33.206Z,8.73
2019-01-11T00:50:22.164Z,8.75
2019-01-11T00:53:12.472Z,8.75
2019-01-11T00:55:44.479Z,8.93
2019-01-11T00:58:15.691Z,9.02
2019-01-11T01:00:47.822Z,9.21
2019-01-11T01:03:18.960Z,9.17
2019-01-11T01:08:50.157Z,9.14
2019-01-11T01:11:20.493Z,9.26
2019-01-11T01:13:50.824Z,9.04
2019-01-11T01:16:21.441Z,8.92
2019-01-11T01:18:53.482Z,8.81
2019-01-11T01:21:23.816Z,8.89
2019-01-11T01:23:55.913Z,8.98
2019-01-11T01:29:35.917Z,8.85
2019-01-11T01:32:06.305Z,8.75
2019-01-11T01:41:03.942Z,9.15
2019-01-11T01:43:44.542Z,9.13
2019-01-11T01:46:33.786Z,9.19
2019-01-11T01:49:04.064Z,9.32
2019-01-11T01:51:36.354Z,9.32
2019-01-11T01:54:25.610Z,9.58
2019-01-11T01:56:55.863Z,9.73
2019-01-11T01:59:26.104Z,9.68
2019-01-11T02:02:18.122Z,9.42
2019-01-11T02:04:49.352Z,9.36
2019-01-11T02:07:19.697Z,9.36
2019-01-11T02:16:24.392Z,9.69
2019-01-11T02:22:29.669Z,9.88
2019-01-11T02:25:00.321Z,10.18
2019-01-11T02:27:49.923Z,10.25
2019-01-11T02:33:48.056Z,10.34
2019-01-11T02:36:06.091Z,10.31
2019-01-11T02:38:59.684Z,10.26
2019-01-11T02:44:37.952Z,10.12
2019-01-11T02:47:08.265Z,10.19
2019-01-11T02:50:03.440Z,10.30
2019-01-11T02:52:39.656Z,10.32
2019-01-11T02:55:29.662Z,10.45
2019-01-11T02:58:02.143Z,10.60
2019-01-11T03:00:51.396Z,10.49
2019-01-11T03:03:42.949Z,10.08
2019-01-11T03:06:32.305Z,10.10
2019-01-11T03:12:02.377Z,9.88
2019-01-11T03:14:32.668Z,9.94
2019-01-11T03:17:26.927Z,10.21
2019-01-11T03:23:32.240Z,9.99
2019-01-11T03:25:53.863Z,9.89
2019-01-11T03:28:24.108Z,9.82
2019-01-11T03:34:15.682Z,9.68
2019-01-11T03:37:05.069Z,9.43
2019-01-11T03:40:08.288Z,9.33
2019-01-11T03:43:08.856Z,9.53
2019-01-11T03:46:09.598Z,9.51
2019-01-11T03:48:58.884Z,9.52
2019-01-11T03:51:48.253Z,9.59
2019-01-11T03:54:38.989Z,9.47
2019-01-11T04:00:49.283Z,9.25
2019-01-11T04:06:33.585Z,9.14
2019-01-11T04:09:22.817Z,9.08
2019-01-11T04:15:17.937Z,9.24
2019-01-11T04:18:26.242Z,9.00
2019-01-11T04:27:02.763Z,9.01
2019-01-11T04:29:33.046Z,8.91
2019-01-11T04:32:03.333Z,8.93
2019-01-11T04:35:12.818Z,9.10
2019-01-11T04:38:02.128Z,9.27
2019-01-11T04:40:51.360Z,9.24
2019-01-11T04:43:40.610Z,9.26
2019-01-11T04:46:21.411Z,9.16
2019-01-11T04:49:27.896Z,8.87
2019-01-11T04:51:50.413Z,8.69
2019-01-11T04:55:00.452Z,8.84
2019-01-11T04:57:52.243Z,8.79
2019-01-11T05:00:41.559Z,8.74
2019-01-11T05:03:11.884Z,8.86
2019-01-11T05:06:01.151Z,8.61
2019-01-11T05:08:31.412Z,8.61
2019-01-11T05:13:46.049Z,8.75
2019-01-11T05:16:16.289Z,8.61
2019-01-11T05:19:06.334Z,8.69
2019-01-11T05:21:55.999Z,8.51
2019-01-11T05:27:25.853Z,8.39
2019-01-11T05:29:56.214Z,8.52
2019-01-11T05:32:26.504Z,8.38
2019-01-11T05:35:15.831Z,8.35
2019-01-11T05:37:46.238Z,8.33
2019-01-11T05:40:20.806Z,8.32
2019-01-11T05:42:51.034Z,8.47
2019-01-11T05:45:24.328Z,8.38
2019-01-11T05:47:54.877Z,8.27
2019-01-11T05:50:25.134Z,8.17
2019-01-11T05:53:14.104Z,8.10
2019-01-11T05:59:07.644Z,8.41
2019-01-11T06:01:56.935Z,8.15
2019-01-11T06:04:45.945Z,8.09
2019-01-11T06:07:54.158Z,8.07
2019-01-11T06:10:43.922Z,8.26
2019-01-11T06:13:33.244Z,8.13
2019-01-11T06:16:03.569Z,8.02
2019-01-11T06:18:33.875Z,8.31
2019-01-11T06:21:24.026Z,8.12
2019-01-11T06:23:55.123Z,8.00
2019-01-11T06:26:26.195Z,8.12
2019-01-11T06:29:16.216Z,8.12
2019-01-11T06:31:47.339Z,8.22
2019-01-11T06:34:17.645Z,8.18
2019-01-11T06:37:07.089Z,8.22
2019-01-11T06:40:15.060Z,8.13
2019-01-11T06:42:45.699Z,7.95
2019-01-11T06:48:48.436Z,8.09
2019-01-11T06:51:18.930Z,8.05
2019-01-11T06:53:49.267Z,8.13
2019-01-11T06:56:21.141Z,8.12
2019-01-11T06:58:52.178Z,8.26
2019-01-11T07:01:23.306Z,8.09
2019-01-11T07:03:53.577Z,8.08
2019-01-11T07:06:24.608Z,7.99
2019-01-11T07:08:55.699Z,8.17
2019-01-11T07:14:29.585Z,8.30
2019-01-11T07:16:59.925Z,8.12
2019-01-11T07:19:49.230Z,8.25
2019-01-11T07:22:19.590Z,8.32
2019-01-11T07:24:53.395Z,8.25
2019-01-11T07:27:38.573Z,8.39
2019-01-11T07:29:55.728Z,8.05
2019-01-11T07:32:47.371Z,8.09
2019-01-11T07:35:50.327Z,7.99
2019-01-11T07:38:20.761Z,8.11
2019-01-11T07:40:51.387Z,8.22
2019-01-11T07:43:41.065Z,8.51
2019-01-11T07:46:11.689Z,8.51
2019-01-11T07:49:23.273Z,8.34
2019-01-11T07:52:13.636Z,8.34
2019-01-11T07:54:43.973Z,8.22
2019-01-11T07:57:32.944Z,8.35
2019-01-11T08:00:03.338Z,8.40
2019-01-11T08:02:49.053Z,8.38
2019-01-11T08:05:25.509Z,8.38
2019-01-11T08:08:15.552Z,8.10
2019-01-11T08:10:45.880Z,8.10
2019-01-11T08:16:26.623Z,8.04
2019-01-11T08:19:15.926Z,8.27
2019-01-11T08:22:04.993Z,8.14
2019-01-11T08:27:47.831Z,8.35
2019-01-11T08:36:08.707Z,8.26
2019-01-11T08:38:57.974Z,8.38
2019-01-11T08:41:47.324Z,8.42
2019-01-11T08:44:17.683Z,8.48
2019-01-11T08:46:47.965Z,8.44
2019-01-11T08:49:37.379Z,8.22
2019-01-11T08:52:29.132Z,8.11
2019-01-11T08:54:59.487Z,8.13
2019-01-11T08:57:29.800Z,8.22
2019-01-11T09:00:19.033Z,8.21
2019-01-11T09:02:49.349Z,8.20
2019-01-11T09:05:19.686Z,8.07
2019-01-11T09:26:12.055Z,8.26
2019-01-11T09:28:46.568Z,8.22
2019-01-11T09:31:27.745Z,8.21
2019-01-11T09:34:08.700Z,8.29
2019-01-11T09:36:45.790Z,8.33
2019-01-11T09:39:27.801Z,8.30
2019-01-11T09:42:14.913Z,8.47
2019-01-11T09:44:45.220Z,8.32
2019-01-11T09:47:16.040Z,8.39
2019-01-11T09:49:46.394Z,8.41
2019-01-11T09:52:19.986Z,8.36
2019-01-11T09:54:50.339Z,8.50
2019-01-11T09:57:21.431Z,8.51
2019-01-11T09:59:51.797Z,8.46
2019-01-11T10:02:39.562Z,8.44
2019-01-11T10:05:17.411Z,8.39
2019-01-11T10:07:48.027Z,8.54
2019-01-11T10:10:18.299Z,8.40
2019-01-11T10:12:49.341Z,8.43
2019-01-11T10:15:31.243Z,8.52
2019-01-11T10:18:05.158Z,8.42
2019-01-11T10:20:36.420Z,8.48
2019-01-11T10:23:08.789Z,8.39
2019-01-11T10:25:43.522Z,8.36
2019-01-11T10:28:36.294Z,8.48
2019-01-11T10:31:06.742Z,8.62
2019-01-11T10:33:37.900Z,8.38
2019-01-11T10:36:08.284Z,8.44
2019-01-11T10:38:40.854Z,8.44
2019-01-11T10:41:11.140Z,8.37
2019-01-11T10:43:42.238Z,8.44
2019-01-11T10:46:33.554Z,8.55
2019-01-11T10:49:04.180Z,8.61
2019-01-11T10:51:35.715Z,8.72
2019-01-11T10:54:07.673Z,8.49
2019-01-11T10:56:41.540Z,8.46
2019-01-11T10:59:14.640Z,8.53
2019-01-11T11:01:44.956Z,8.55
2019-01-11T11:04:15.599Z,8.65
2019-01-11T11:06:46.171Z,8.67
2019-01-11T11:09:16.519Z,8.56
2019-01-11T11:11:49.826Z,8.57
2019-01-11T11:14:20.407Z,8.59
2019-01-11T11:16:53.148Z,8.63
2019-01-11T11:19:26.362Z,8.51
2019-01-11T11:22:00.830Z,8.48
2019-01-11T11:24:34.496Z,8.62
2019-01-11T11:27:04.764Z,8.58
2019-01-11T11:29:37.753Z,8.71
2019-01-11T11:32:08.183Z,8.45
2019-01-11T11:34:40.156Z,8.34
2019-01-11T11:37:13.448Z,8.44
2019-01-11T11:39:48.676Z,8.29
2019-01-11T11:42:18.968Z,8.19
2019-01-11T11:44:49.293Z,8.39
2019-01-11T11:47:19.694Z,8.50
2019-01-11T11:49:50.377Z,8.43
2019-01-11T11:52:20.716Z,8.62
2019-01-11T11:54:54.967Z,8.53
2019-01-11T11:57:25.339Z,8.58
2019-01-11T11:59:57.081Z,8.59
2019-01-11T12:02:29.891Z,8.33
2019-01-11T12:04:59.963Z,8.48
2019-01-11T12:07:30.393Z,8.76
2019-01-11T12:10:01.499Z,8.74
2019-01-11T12:12:32.609Z,8.71
2019-01-11T12:15:06.094Z,8.66
2019-01-11T12:17:44.315Z,8.88
2019-01-11T12:20:32.573Z,8.82
2019-01-11T12:23:02.967Z,8.99
2019-01-11T12:25:33.641Z,8.78
2019-01-11T12:28:04.185Z,8.78
2019-01-11T12:30:37.220Z,8.85
2019-01-11T12:33:08.718Z,8.88
2019-01-11T12:35:38.988Z,8.85
2019-01-11T12:38:13.781Z,8.91
2019-01-11T12:40:43.412Z,8.88
2019-01-11T12:43:24.366Z,9.09
2019-01-11T12:45:55.221Z,9.00
2019-01-11T12:48:31.236Z,8.72
2019-01-11T12:51:02.895Z,8.71
2019-01-11T12:53:34.138Z,8.63
2019-01-11T12:56:07.550Z,8.63
2019-01-11T12:59:05.908Z,8.62
2019-01-11T13:01:43.564Z,8.68
2019-01-11T13:04:22.331Z,8.98
2019-01-11T13:06:54.501Z,8.89
2019-01-11T13:09:24.906Z,8.98
2019-01-11T13:11:58.851Z,8.69
2019-01-11T13:14:33.319Z,8.87
2019-01-11T13:17:03.799Z,8.96
2019-01-11T13:19:35.451Z,9.00
2019-01-11T13:22:08.031Z,9.11
2019-01-11T13:24:41.713Z,8.93
2019-01-11T13:27:11.542Z,8.74
2019-01-11T13:29:42.586Z,9.01
2019-01-11T13:32:15.114Z,9.04
2019-01-11T13:34:53.192Z,8.88
2019-01-11T13:37:28.182Z,8.94
2019-01-11T13:40:01.141Z,8.84
2019-01-11T13:42:32.195Z,8.96
2019-01-11T13:45:02.506Z,9.25
2019-01-11T13:47:38.275Z,9.11
2019-01-11T13:50:17.827Z,9.02
2019-01-11T13:52:52.248Z,9.12
2019-01-11T13:55:28.015Z,9.09
2019-01-11T13:57:59.447Z,9.14
2019-01-11T14:00:29.823Z,9.08
2019-01-11T14:03:02.338Z,9.23
2019-01-11T14:05:35.892Z,9.24
2019-01-11T14:08:07.246Z,9.42
2019-01-11T14:10:40.595Z,9.38
2019-01-11T14:13:11.216Z,9.24
2019-01-11T14:15:42.317Z,9.03
2019-01-11T14:18:12.759Z,9.06
2019-01-11T14:20:45.541Z,9.15
2019-01-11T14:23:15.956Z,9.25
2019-01-11T14:25:47.514Z,9.03
2019-01-11T14:28:17.936Z,9.12
2019-01-11T14:30:48.284Z,9.00
2019-01-11T14:33:18.773Z,9.07
2019-01-11T14:35:49.162Z,9.13
2019-01-11T14:38:19.523Z,8.98
2019-01-11T14:40:50.637Z,9.04
2019-01-11T14:43:21.083Z,9.07
2019-01-11T14:45:52.161Z,9.11
2019-01-11T14:48:24.328Z,9.11
2019-01-11T14:50:56.209Z,9.17
2019-01-11T14:53:26.529Z,9.09
2019-01-11T14:55:59.807Z,9.21
2019-01-11T14:58:31.497Z,9.01
2019-01-11T15:01:02.162Z,8.90
2019-01-11T15:03:33.231Z,8.97
2019-01-11T15:06:03.601Z,8.94
2019-01-11T15:08:37.706Z,8.84
2019-01-11T15:11:10.792Z,8.75
2019-01-11T15:13:43.709Z,8.89
2019-01-11T15:16:13.990Z,8.76
2019-01-11T15:18:49.490Z,8.83
2019-01-11T15:21:21.386Z,8.84
2019-01-11T15:23:55.343Z,8.92
2019-01-11T15:26:27.700Z,8.92
2019-01-11T15:29:01.158Z,8.99
2019-01-11T15:31:32.527Z,9.14
2019-01-11T15:34:02.810Z,9.24
2019-01-11T15:36:39.176Z,9.35
2019-01-11T15:39:11.063Z,9.35
2019-01-11T15:41:42.756Z,9.41
2019-01-11T15:44:14.529Z,9.51
2019-01-11T15:46:47.521Z,9.42
2019-01-11T15:49:18.193Z,9.38
2019-01-11T15:51:48.506Z,9.19
2019-01-11T15:54:19.194Z,9.25
2019-01-11T15:56:49.587Z,9.14
2019-01-11T15:59:19.872Z,9.14
2019-01-11T16:01:58.767Z,9.23
2019-01-11T16:04:43.211Z,9.05
2019-01-11T16:07:17.079Z,9.02
2019-01-11T16:10:01.243Z,9.01
2019-01-11T16:13:02.553Z,9.03
2019-01-11T16:16:05.873Z,9.10
2019-01-11T16:18:36.715Z,9.18
2019-01-11T16:21:13.795Z,9.40
2019-01-11T16:23:44.237Z,9.45
2019-01-11T16:26:14.529Z,9.39
2019-01-11T16:28:55.418Z,9.38
2019-01-11T16:33:52.092Z,9.43
2019-01-11T16:36:23.770Z,9.39
2019-01-11T16:38:54.897Z,9.60
2019-01-11T16:41:25.248Z,9.60
2019-01-11T16:43:55.618Z,9.75
2019-01-11T16:46:27.599Z,9.81
2019-01-11T16:48:58.407Z,9.83
2019-01-11T16:51:28.778Z,9.78
2019-01-11T16:54:01.599Z,9.96
2019-01-11T16:56:31.903Z,9.95
2019-01-11T16:59:05.489Z,9.93
2019-01-11T17:01:38.863Z,9.97
2019-01-11T17:04:09.156Z,10.19
2019-01-11T17:06:40.857Z,10.24
2019-01-11T17:09:11.219Z,10.42
2019-01-11T17:11:42.898Z,10.53
2019-01-11T17:14:16.644Z,10.79
2019-01-11T17:16:49.346Z,10.74
2019-01-11T17:19:21.525Z,10.88
2019-01-11T17:21:51.887Z,10.81
2019-01-11T17:24:27.211Z,10.69
2019-01-11T17:26:57.778Z,10.45
2019-01-11T17:29:28.273Z,10.37
2019-01-11T17:31:59.407Z,10.27
2019-01-11T17:34:30.197Z,10.20
2019-01-11T17:37:07.585Z,10.28
2019-01-11T17:39:38.181Z,10.36
2019-01-11T17:42:12.046Z,10.37
2019-01-11T17:44:46.880Z,10.30
2019-01-11T17:47:17.596Z,10.53
2019-01-11T17:49:47.923Z,10.30
2019-01-11T17:52:19.102Z,10.25
2019-01-11T17:54:49.785Z,10.10
2019-01-11T17:57:21.627Z,10.10
2019-01-11T17:59:52.055Z,10.10
2019-01-11T18:02:25.779Z,10.25
2019-01-11T18:04:56.082Z,10.27
2019-01-11T18:07:29.730Z,10.10
2019-01-11T18:10:03.158Z,10.07
2019-01-11T18:12:36.311Z,9.93
2019-01-11T18:15:11.652Z,9.90
2019-01-11T18:17:43.261Z,9.86
2019-01-11T18:20:18.928Z,9.83
2019-01-11T18:22:49.330Z,9.99
2019-01-11T18:25:28.464Z,9.88
2019-01-11T18:28:01.560Z,9.72
2019-01-11T18:30:34.565Z,9.71
2019-01-11T18:33:06.097Z,9.69
2019-01-11T18:35:36.606Z,9.42
2019-01-11T18:38:10.005Z,9.53
2019-01-11T18:40:41.747Z,9.44
2019-01-11T18:43:15.644Z,9.38
2019-01-11T18:45:46.017Z,9.60
2019-01-11T18:48:16.986Z,9.61
2019-01-11T18:50:52.267Z,9.53
2019-01-11T18:53:25.096Z,9.41
2019-01-11T18:56:05.508Z,9.42
2019-01-11T18:58:35.562Z,9.42
2019-01-11T19:01:05.897Z,9.45
2019-01-11T19:03:37.185Z,9.55
2019-01-11T19:06:07.848Z,9.47
2019-01-11T19:08:38.237Z,9.32
2019-01-11T19:11:08.568Z,9.27
2019-01-11T19:13:41.913Z,9.15
2019-01-11T19:16:19.369Z,9.16
2019-01-11T19:18:52.574Z,9.05
2019-01-11T19:21:23.482Z,9.17
2019-01-11T19:24:00.811Z,9.27
2019-01-11T19:26:32.811Z,9.36
2019-01-11T19:29:03.391Z,9.44
2019-01-11T19:31:38.428Z,9.50
2019-01-11T19:34:08.955Z,9.53
2019-01-11T19:36:39.529Z,9.46
2019-01-11T19:39:16.293Z,9.43
2019-01-11T19:41:46.885Z,9.31
2019-01-11T19:44:17.148Z,9.28
2019-01-11T19:46:50.293Z,9.42
2019-01-11T19:49:26.864Z,9.61
2019-01-11T19:51:57.315Z,9.92
2019-01-11T19:54:27.678Z,9.66
2019-01-11T19:56:58.820Z,9.59
2019-01-11T19:59:34.642Z,9.59
2019-01-11T20:02:11.160Z,9.68
2019-01-11T20:04:37.021Z,9.66
2019-01-11T20:07:07.454Z,9.71
2019-01-11T20:09:44.909Z,9.83
2019-01-11T20:12:15.297Z,10.07
2019-01-11T20:14:46.832Z,9.97
2019-01-11T20:17:17.107Z,9.91
2019-01-11T20:19:47.494Z,10.03
2019-01-11T20:22:17.964Z,9.94
2019-01-11T20:24:49.090Z,9.83
2019-01-11T20:27:21.800Z,10.14
2019-01-11T20:29:55.697Z,10.10
2019-01-11T20:32:27.495Z,10.06
2019-01-11T20:34:58.691Z,9.99
2019-01-11T20:37:30.452Z,9.99
2019-01-11T20:40:00.867Z,9.96
2019-01-11T20:42:32.113Z,10.16
2019-01-11T20:45:02.928Z,10.02
2019-01-11T20:47:34.047Z,9.83
2019-01-11T20:50:08.355Z,9.87
2019-01-11T20:52:38.718Z,9.78
2019-01-11T20:55:10.177Z,9.96
2019-01-11T20:57:42.309Z,9.97
2019-01-11T21:00:35.447Z,9.90
2019-01-11T21:03:09.616Z,9.90
2019-01-11T21:05:40.038Z,9.93
2019-01-11T21:08:10.662Z,9.78
2019-01-11T21:10:42.667Z,9.74
2019-01-11T21:13:13.047Z,9.63
2019-01-11T21:15:45.094Z,9.46
2019-01-11T21:18:15.407Z,9.30
2019-01-11T21:20:45.803Z,9.44
2019-01-11T21:23:16.492Z,9.48
2019-01-11T21:25:49.661Z,9.76
2019-01-11T21:28:22.982Z,9.42
2019-01-11T21:30:57.406Z,9.45
2019-01-11T21:33:29.381Z,9.69
2019-01-11T21:35:59.751Z,9.69
2019-01-11T21:38:30.896Z,9.94
2019-01-11T21:41:03.524Z,9.95
2019-01-11T21:43:34.791Z,9.80
2019-01-11T21:46:07.423Z,10.02
2019-01-11T21:48:38.142Z,10.13
2019-01-11T21:51:08.604Z,9.92
2019-01-11T21:53:40.878Z,9.65
2019-01-11T21:56:11.550Z,9.53
2019-01-11T21:58:41.967Z,9.54
2019-01-11T22:01:12.340Z,9.85
2019-01-11T22:03:45.273Z,9.84
2019-01-11T22:06:18.716Z,9.83
2019-01-11T22:09:50.516Z,9.92
2019-01-11T22:12:23.234Z,9.96
2019-01-11T22:15:01.706Z,9.60
2019-01-11T22:17:32.049Z,9.41
2019-01-11T22:20:03.317Z,9.35
2019-01-11T22:22:34.019Z,9.16
2019-01-11T22:25:05.607Z,9.24
2019-01-11T22:27:38.733Z,9.27
2019-01-11T22:30:30.516Z,9.12
2019-01-11T22:33:00.600Z,9.22
2019-01-11T22:35:31.267Z,9.41
2019-01-11T22:38:01.543Z,9.31
2019-01-11T22:40:34.710Z,9.26
2019-01-11T22:43:05.186Z,9.29
2019-01-11T22:45:44.353Z,9.27
2019-01-11T22:48:17.929Z,9.41
2019-01-11T22:50:51.459Z,9.47
2019-01-11T22:53:21.988Z,9.46
2019-01-11T22:55:54.609Z,9.54
2019-01-11T22:58:28.571Z,9.57
2019-01-11T23:01:24.850Z,9.51
2019-01-11T23:03:56.163Z,9.50
2019-01-11T23:07:24.252Z,9.39
2019-01-11T23:10:24.665Z,9.46
2019-01-11T23:13:03.148Z,9.47
2019-01-11T23:15:37.093Z,9.54
2019-01-11T23:18:15.350Z,9.49
2019-01-11T23:20:50.342Z,9.54
2019-01-11T23:23:21.432Z,9.30
2019-01-11T23:25:51.745Z,9.35
2019-01-11T23:28:22.520Z,9.36
2019-01-11T23:30:53.213Z,9.43
2019-01-11T23:33:23.588Z,9.53
2019-01-11T23:35:54.169Z,9.56
2019-01-11T23:38:24.571Z,9.65
2019-01-11T23:40:55.213Z,9.43
2019-01-11T23:43:27.264Z,9.45
2019-01-11T23:46:07.479Z,9.50
2019-01-11T23:48:38.058Z,9.34
2019-01-11T23:51:11.988Z,9.27
2019-01-11T23:53:46.160Z,9.54
2019-01-11T23:56:18.759Z,9.44
2019-01-11T23:58:49.499Z,9.58
